sensor_id;sensor_type;location;lat;lon;timestamp;P1;durP1;ratioP1;P2;durP2;ratioP2
16837;SDS011;19510;54.486;9.046;2024-01-15T00:01:44;13.00;;;2.93;;
16837;SDS011;19510;54.486;9.046;2024-01-15T00:04:10;12.53;;;2.47;;
16837;SDS011;19510;54.486;9.046;2024-01-15T00:06:36;14.77;;;2.80;;
16837;SDS011;19510;54.486;9.046;2024-01-15T00:09:01;20.53;;;4.10;;
16837;SDS011;19510;54.486;9.046;2024-01-15T00:11:27;28.47;;;3.13;;
16837;SDS011;19510;54.486;9.046;2024-01-15T00:13:53;27.50;;;3.40;;
16837;SDS011;19510;54.486;9.046;2024-01-15T00:16:18;14.93;;;2.80;;
16837;SDS011;19510;54.486;9.046;2024-01-15T00:18:49;11.70;;;2.30;;
16837;SDS011;19510;54.486;9.046;2024-01-15T00:21:14;9.90;;;3.17;;
16837;SDS011;19510;54.486;9.046;2024-01-15T00:23:43;14.90;;;3.07;;
16837;SDS011;19510;54.486;9.046;2024-01-15T00:26:12;12.57;;;2.37;;
16837;SDS011;19510;54.486;9.046;2024-01-15T00:28:38;12.80;;;2.20;;
16837;SDS011;19510;54.486;9.046;2024-01-15T00:31:04;12.97;;;2.20;;
16837;SDS011;19510;54.486;9.046;2024-01-15T00:33:30;13.63;;;2.60;;
16837;SDS011;19510;54.486;9.046;2024-01-15T00:35:56;15.53;;;2.27;;
16837;SDS011;19510;54.486;9.046;2024-01-15T00:38:21;12.33;;;2.37;;
16837;SDS011;19510;54.486;9.046;2024-01-15T00:40:47;10.67;;;2.10;;
16837;SDS011;19510;54.486;9.046;2024-01-15T00:43:16;17.47;;;2.87;;
16837;SDS011;19510;54.486;9.046;2024-01-15T00:45:44;14.17;;;2.40;;
16837;SDS011;19510;54.486;9.046;2024-01-15T00:48:09;14.13;;;2.37;;
16837;SDS011;19510;54.486;9.046;2024-01-15T00:50:35;9.73;;;2.30;;
16837;SDS011;19510;54.486;9.046;2024-01-15T00:53:01;14.80;;;2.47;;
16837;SDS011;19510;54.486;9.046;2024-01-15T00:55:28;13.13;;;2.30;;
16837;SDS011;19510;54.486;9.046;2024-01-15T00:57:54;10.13;;;2.90;;
16837;SDS011;19510;54.486;9.046;2024-01-15T01:00:20;10.77;;;2.40;;
16837;SDS011;19510;54.486;9.046;2024-01-15T01:02:46;13.93;;;2.93;;
16837;SDS011;19510;54.486;9.046;2024-01-15T01:05:11;14.27;;;2.17;;
16837;SDS011;19510;54.486;9.046;2024-01-15T01:07:37;10.80;;;2.20;;
16837;SDS011;19510;54.486;9.046;2024-01-15T01:10:03;15.07;;;2.37;;
16837;SDS011;19510;54.486;9.046;2024-01-15T01:12:29;13.57;;;2.67;;
16837;SDS011;19510;54.486;9.046;2024-01-15T01:14:55;19.23;;;2.57;;
16837;SDS011;19510;54.486;9.046;2024-01-15T01:17:21;19.83;;;2.90;;
16837;SDS011;19510;54.486;9.046;2024-01-15T01:19:47;10.77;;;2.30;;
16837;SDS011;19510;54.486;9.046;2024-01-15T01:22:14;10.53;;;2.83;;
16837;SDS011;19510;54.486;9.046;2024-01-15T01:24:40;14.83;;;3.10;;
16837;SDS011;19510;54.486;9.046;2024-01-15T01:27:05;12.23;;;2.77;;
16837;SDS011;19510;54.486;9.046;2024-01-15T01:29:31;14.73;;;2.10;;
16837;SDS011;19510;54.486;9.046;2024-01-15T01:31:57;6.30;;;1.53;;
16837;SDS011;19510;54.486;9.046;2024-01-15T01:34:22;5.57;;;1.70;;
16837;SDS011;19510;54.486;9.046;2024-01-15T01:36:48;9.67;;;2.10;;
16837;SDS011;19510;54.486;9.046;2024-01-15T01:39:16;10.87;;;2.10;;
16837;SDS011;19510;54.486;9.046;2024-01-15T01:41:42;8.50;;;1.87;;
16837;SDS011;19510;54.486;9.046;2024-01-15T01:44:08;15.80;;;2.00;;
16837;SDS011;19510;54.486;9.046;2024-01-15T01:46:33;6.30;;;1.20;;
16837;SDS011;19510;54.486;9.046;2024-01-15T01:49:04;13.00;;;1.43;;
16837;SDS011;19510;54.486;9.046;2024-01-15T01:51:31;8.90;;;1.23;;
16837;SDS011;19510;54.486;9.046;2024-01-15T01:53:58;4.70;;;1.30;;
16837;SDS011;19510;54.486;9.046;2024-01-15T01:56:23;7.13;;;1.63;;
16837;SDS011;19510;54.486;9.046;2024-01-15T01:58:49;8.63;;;1.43;;
16837;SDS011;19510;54.486;9.046;2024-01-15T02:01:15;6.07;;;1.40;;
16837;SDS011;19510;54.486;9.046;2024-01-15T02:03:41;4.70;;;1.50;;
16837;SDS011;19510;54.486;9.046;2024-01-15T02:06:08;5.10;;;2.00;;
16837;SDS011;19510;54.486;9.046;2024-01-15T02:11:53;4.80;;;1.60;;
16837;SDS011;19510;54.486;9.046;2024-01-15T02:14:19;9.50;;;1.60;;
16837;SDS011;19510;54.486;9.046;2024-01-15T02:16:45;7.73;;;1.70;;
16837;SDS011;19510;54.486;9.046;2024-01-15T02:19:17;4.50;;;1.60;;
16837;SDS011;19510;54.486;9.046;2024-01-15T02:21:46;10.63;;;1.90;;
16837;SDS011;19510;54.486;9.046;2024-01-15T02:24:14;10.53;;;1.30;;
16837;SDS011;19510;54.486;9.046;2024-01-15T02:26:40;9.27;;;2.13;;
16837;SDS011;19510;54.486;9.046;2024-01-15T02:29:09;10.47;;;2.53;;
16837;SDS011;19510;54.486;9.046;2024-01-15T02:31:38;9.30;;;1.93;;
16837;SDS011;19510;54.486;9.046;2024-01-15T02:34:04;12.77;;;2.70;;
16837;SDS011;19510;54.486;9.046;2024-01-15T02:36:30;13.67;;;2.07;;
16837;SDS011;19510;54.486;9.046;2024-01-15T02:38:56;5.87;;;1.83;;
16837;SDS011;19510;54.486;9.046;2024-01-15T02:41:21;13.77;;;2.60;;
16837;SDS011;19510;54.486;9.046;2024-01-15T02:43:47;13.33;;;2.73;;
16837;SDS011;19510;54.486;9.046;2024-01-15T02:46:13;12.70;;;3.00;;
16837;SDS011;19510;54.486;9.046;2024-01-15T02:48:38;13.63;;;2.13;;
16837;SDS011;19510;54.486;9.046;2024-01-15T02:51:04;13.80;;;2.47;;
16837;SDS011;19510;54.486;9.046;2024-01-15T02:53:29;21.83;;;2.63;;
16837;SDS011;19510;54.486;9.046;2024-01-15T02:55:55;16.27;;;2.30;;
16837;SDS011;19510;54.486;9.046;2024-01-15T02:58:21;12.47;;;2.77;;
16837;SDS011;19510;54.486;9.046;2024-01-15T03:00:47;9.33;;;2.30;;
16837;SDS011;19510;54.486;9.046;2024-01-15T03:03:13;11.73;;;2.50;;
16837;SDS011;19510;54.486;9.046;2024-01-15T03:05:38;13.53;;;2.03;;
16837;SDS011;19510;54.486;9.046;2024-01-15T03:08:04;16.83;;;2.77;;
16837;SDS011;19510;54.486;9.046;2024-01-15T03:10:30;12.80;;;2.50;;
16837;SDS011;19510;54.486;9.046;2024-01-15T03:12:56;13.70;;;2.80;;
16837;SDS011;19510;54.486;9.046;2024-01-15T03:15:22;7.83;;;2.10;;
16837;SDS011;19510;54.486;9.046;2024-01-15T03:17:48;15.60;;;3.33;;
16837;SDS011;19510;54.486;9.046;2024-01-15T03:20:13;16.40;;;3.40;;
16837;SDS011;19510;54.486;9.046;2024-01-15T03:22:39;25.67;;;3.17;;
16837;SDS011;19510;54.486;9.046;2024-01-15T03:25:05;15.60;;;3.03;;
16837;SDS011;19510;54.486;9.046;2024-01-15T03:27:32;12.10;;;2.00;;
16837;SDS011;19510;54.486;9.046;2024-01-15T03:29:57;12.13;;;1.93;;
16837;SDS011;19510;54.486;9.046;2024-01-15T03:32:26;12.63;;;2.97;;
16837;SDS011;19510;54.486;9.046;2024-01-15T03:34:52;17.50;;;2.80;;
16837;SDS011;19510;54.486;9.046;2024-01-15T03:37:17;14.53;;;2.80;;
16837;SDS011;19510;54.486;9.046;2024-01-15T03:39:43;14.43;;;2.57;;
16837;SDS011;19510;54.486;9.046;2024-01-15T03:42:09;14.27;;;4.67;;
16837;SDS011;19510;54.486;9.046;2024-01-15T03:44:34;18.53;;;2.33;;
16837;SDS011;19510;54.486;9.046;2024-01-15T03:47:00;11.63;;;3.07;;
16837;SDS011;19510;54.486;9.046;2024-01-15T03:49:26;9.83;;;2.37;;
16837;SDS011;19510;54.486;9.046;2024-01-15T03:51:51;16.13;;;3.27;;
16837;SDS011;19510;54.486;9.046;2024-01-15T03:54:17;15.23;;;2.20;;
16837;SDS011;19510;54.486;9.046;2024-01-15T03:56:43;11.10;;;2.23;;
16837;SDS011;19510;54.486;9.046;2024-01-15T03:59:08;10.77;;;1.50;;
16837;SDS011;19510;54.486;9.046;2024-01-15T04:01:34;10.00;;;1.83;;
16837;SDS011;19510;54.486;9.046;2024-01-15T04:04:00;15.37;;;2.43;;
16837;SDS011;19510;54.486;9.046;2024-01-15T04:06:25;10.10;;;2.13;;
16837;SDS011;19510;54.486;9.046;2024-01-15T04:08:51;27.73;;;2.97;;
16837;SDS011;19510;54.486;9.046;2024-01-15T04:11:17;12.10;;;2.33;;
16837;SDS011;19510;54.486;9.046;2024-01-15T04:13:42;14.97;;;1.97;;
16837;SDS011;19510;54.486;9.046;2024-01-15T04:16:08;11.57;;;2.17;;
16837;SDS011;19510;54.486;9.046;2024-01-15T04:18:34;15.80;;;2.40;;
16837;SDS011;19510;54.486;9.046;2024-01-15T04:20:59;11.90;;;1.97;;
16837;SDS011;19510;54.486;9.046;2024-01-15T04:23:25;14.60;;;2.10;;
16837;SDS011;19510;54.486;9.046;2024-01-15T04:25:50;16.97;;;2.77;;
16837;SDS011;19510;54.486;9.046;2024-01-15T04:28:16;12.43;;;2.23;;
16837;SDS011;19510;54.486;9.046;2024-01-15T04:30:42;10.87;;;2.37;;
16837;SDS011;19510;54.486;9.046;2024-01-15T04:33:08;20.73;;;2.57;;
16837;SDS011;19510;54.486;9.046;2024-01-15T04:35:37;16.37;;;2.37;;
16837;SDS011;19510;54.486;9.046;2024-01-15T04:38:03;15.73;;;2.33;;
16837;SDS011;19510;54.486;9.046;2024-01-15T04:40:28;17.37;;;2.23;;
16837;SDS011;19510;54.486;9.046;2024-01-15T04:42:54;19.33;;;2.17;;
16837;SDS011;19510;54.486;9.046;2024-01-15T04:45:20;6.97;;;2.33;;
16837;SDS011;19510;54.486;9.046;2024-01-15T04:47:48;13.50;;;2.90;;
16837;SDS011;19510;54.486;9.046;2024-01-15T04:50:14;16.17;;;2.67;;
16837;SDS011;19510;54.486;9.046;2024-01-15T04:52:42;16.97;;;2.57;;
16837;SDS011;19510;54.486;9.046;2024-01-15T04:55:08;13.13;;;2.27;;
16837;SDS011;19510;54.486;9.046;2024-01-15T04:57:34;13.53;;;2.20;;
16837;SDS011;19510;54.486;9.046;2024-01-15T04:59:59;11.37;;;2.70;;
16837;SDS011;19510;54.486;9.046;2024-01-15T05:02:25;20.37;;;3.43;;
16837;SDS011;19510;54.486;9.046;2024-01-15T05:04:50;17.63;;;2.53;;
16837;SDS011;19510;54.486;9.046;2024-01-15T05:07:16;13.87;;;2.80;;
16837;SDS011;19510;54.486;9.046;2024-01-15T05:09:42;16.77;;;2.80;;
16837;SDS011;19510;54.486;9.046;2024-01-15T05:12:07;14.33;;;2.47;;
16837;SDS011;19510;54.486;9.046;2024-01-15T05:14:33;14.20;;;3.70;;
16837;SDS011;19510;54.486;9.046;2024-01-15T05:16:59;13.90;;;2.33;;
16837;SDS011;19510;54.486;9.046;2024-01-15T05:19:24;11.17;;;3.17;;
16837;SDS011;19510;54.486;9.046;2024-01-15T05:21:50;10.00;;;2.63;;
16837;SDS011;19510;54.486;9.046;2024-01-15T05:24:15;9.33;;;2.53;;
16837;SDS011;19510;54.486;9.046;2024-01-15T05:26:44;12.63;;;2.30;;
16837;SDS011;19510;54.486;9.046;2024-01-15T05:29:10;20.07;;;3.10;;
16837;SDS011;19510;54.486;9.046;2024-01-15T05:31:37;13.10;;;2.27;;
16837;SDS011;19510;54.486;9.046;2024-01-15T05:37:25;16.37;;;2.63;;
16837;SDS011;19510;54.486;9.046;2024-01-15T05:39:51;11.67;;;2.07;;
16837;SDS011;19510;54.486;9.046;2024-01-15T05:42:17;15.50;;;2.70;;
16837;SDS011;19510;54.486;9.046;2024-01-15T05:44:42;7.57;;;2.03;;
16837;SDS011;19510;54.486;9.046;2024-01-15T05:47:08;8.87;;;2.20;;
16837;SDS011;19510;54.486;9.046;2024-01-15T05:49:33;12.80;;;2.13;;
16837;SDS011;19510;54.486;9.046;2024-01-15T05:51:59;9.03;;;1.67;;
16837;SDS011;19510;54.486;9.046;2024-01-15T05:54:25;16.87;;;1.83;;
16837;SDS011;19510;54.486;9.046;2024-01-15T05:56:50;10.53;;;2.30;;
16837;SDS011;19510;54.486;9.046;2024-01-15T05:59:16;13.97;;;2.10;;
16837;SDS011;19510;54.486;9.046;2024-01-15T06:01:42;11.00;;;2.40;;
16837;SDS011;19510;54.486;9.046;2024-01-15T06:04:07;13.73;;;2.33;;
16837;SDS011;19510;54.486;9.046;2024-01-15T06:06:33;10.60;;;1.90;;
16837;SDS011;19510;54.486;9.046;2024-01-15T06:09:04;9.20;;;2.30;;
16837;SDS011;19510;54.486;9.046;2024-01-15T06:11:33;8.23;;;1.73;;
16837;SDS011;19510;54.486;9.046;2024-01-15T06:14:02;15.97;;;1.70;;
16837;SDS011;19510;54.486;9.046;2024-01-15T06:16:28;7.33;;;1.80;;
16837;SDS011;19510;54.486;9.046;2024-01-15T06:18:54;19.40;;;2.20;;
16837;SDS011;19510;54.486;9.046;2024-01-15T06:21:20;7.03;;;1.63;;
16837;SDS011;19510;54.486;9.046;2024-01-15T06:23:45;6.80;;;2.10;;
16837;SDS011;19510;54.486;9.046;2024-01-15T06:26:11;14.07;;;1.97;;
16837;SDS011;19510;54.486;9.046;2024-01-15T06:28:37;7.10;;;1.87;;
16837;SDS011;19510;54.486;9.046;2024-01-15T06:31:03;11.03;;;1.67;;
16837;SDS011;19510;54.486;9.046;2024-01-15T06:33:30;7.03;;;2.00;;
16837;SDS011;19510;54.486;9.046;2024-01-15T06:35:56;12.47;;;2.20;;
16837;SDS011;19510;54.486;9.046;2024-01-15T06:38:22;12.67;;;1.40;;
16837;SDS011;19510;54.486;9.046;2024-01-15T06:40:48;10.43;;;2.37;;
16837;SDS011;19510;54.486;9.046;2024-01-15T06:43:14;9.67;;;1.87;;
16837;SDS011;19510;54.486;9.046;2024-01-15T06:45:45;9.10;;;2.60;;
16837;SDS011;19510;54.486;9.046;2024-01-15T06:48:12;11.03;;;1.97;;
16837;SDS011;19510;54.486;9.046;2024-01-15T06:50:41;9.27;;;1.90;;
16837;SDS011;19510;54.486;9.046;2024-01-15T06:53:09;6.60;;;1.57;;
16837;SDS011;19510;54.486;9.046;2024-01-15T06:55:35;11.70;;;1.53;;
16837;SDS011;19510;54.486;9.046;2024-01-15T06:58:01;11.20;;;1.40;;
16837;SDS011;19510;54.486;9.046;2024-01-15T07:00:26;8.30;;;1.83;;
16837;SDS011;19510;54.486;9.046;2024-01-15T07:02:52;5.80;;;1.83;;
16837;SDS011;19510;54.486;9.046;2024-01-15T07:05:20;8.63;;;2.13;;
16837;SDS011;19510;54.486;9.046;2024-01-15T07:07:46;7.53;;;1.80;;
16837;SDS011;19510;54.486;9.046;2024-01-15T07:10:12;17.70;;;2.00;;
16837;SDS011;19510;54.486;9.046;2024-01-15T07:12:38;12.07;;;1.90;;
16837;SDS011;19510;54.486;9.046;2024-01-15T07:15:06;9.13;;;1.70;;
16837;SDS011;19510;54.486;9.046;2024-01-15T07:17:33;12.20;;;1.70;;
16837;SDS011;19510;54.486;9.046;2024-01-15T07:19:59;6.20;;;1.87;;
16837;SDS011;19510;54.486;9.046;2024-01-15T07:22:25;8.87;;;1.70;;
16837;SDS011;19510;54.486;9.046;2024-01-15T07:24:50;5.83;;;1.63;;
16837;SDS011;19510;54.486;9.046;2024-01-15T07:27:19;8.77;;;1.40;;
16837;SDS011;19510;54.486;9.046;2024-01-15T07:29:45;7.33;;;1.83;;
16837;SDS011;19510;54.486;9.046;2024-01-15T07:32:10;13.43;;;2.17;;
16837;SDS011;19510;54.486;9.046;2024-01-15T07:34:37;4.17;;;1.40;;
16837;SDS011;19510;54.486;9.046;2024-01-15T07:37:05;4.63;;;1.30;;
16837;SDS011;19510;54.486;9.046;2024-01-15T07:39:31;4.97;;;1.57;;
16837;SDS011;19510;54.486;9.046;2024-01-15T07:41:57;5.77;;;1.60;;
16837;SDS011;19510;54.486;9.046;2024-01-15T07:44:23;10.17;;;1.67;;
16837;SDS011;19510;54.486;9.046;2024-01-15T07:46:49;14.13;;;1.93;;
16837;SDS011;19510;54.486;9.046;2024-01-15T07:49:14;5.97;;;2.40;;
16837;SDS011;19510;54.486;9.046;2024-01-15T07:51:41;10.37;;;1.80;;
16837;SDS011;19510;54.486;9.046;2024-01-15T07:54:08;6.73;;;1.40;;
16837;SDS011;19510;54.486;9.046;2024-01-15T07:56:34;6.70;;;1.30;;
16837;SDS011;19510;54.486;9.046;2024-01-15T07:59:17;4.63;;;1.17;;
16837;SDS011;19510;54.486;9.046;2024-01-15T08:01:43;7.43;;;1.60;;
16837;SDS011;19510;54.486;9.046;2024-01-15T08:04:09;3.47;;;1.13;;
16837;SDS011;19510;54.486;9.046;2024-01-15T08:06:37;6.17;;;1.20;;
16837;SDS011;19510;54.486;9.046;2024-01-15T08:09:05;5.63;;;1.30;;
16837;SDS011;19510;54.486;9.046;2024-01-15T08:11:31;3.20;;;1.00;;
16837;SDS011;19510;54.486;9.046;2024-01-15T08:13:57;4.23;;;1.20;;
16837;SDS011;19510;54.486;9.046;2024-01-15T08:16:22;4.77;;;1.33;;
16837;SDS011;19510;54.486;9.046;2024-01-15T08:18:50;11.63;;;1.50;;
16837;SDS011;19510;54.486;9.046;2024-01-15T08:21:16;5.27;;;1.23;;
16837;SDS011;19510;54.486;9.046;2024-01-15T08:23:42;2.30;;;1.03;;
16837;SDS011;19510;54.486;9.046;2024-01-15T08:26:07;8.00;;;1.30;;
16837;SDS011;19510;54.486;9.046;2024-01-15T08:28:34;11.87;;;1.57;;
16837;SDS011;19510;54.486;9.046;2024-01-15T08:31:02;2.63;;;1.20;;
16837;SDS011;19510;54.486;9.046;2024-01-15T08:33:28;2.77;;;0.83;;
16837;SDS011;19510;54.486;9.046;2024-01-15T08:35:54;3.20;;;1.00;;
16837;SDS011;19510;54.486;9.046;2024-01-15T08:38:20;6.77;;;1.40;;
16837;SDS011;19510;54.486;9.046;2024-01-15T08:40:46;6.40;;;1.10;;
16837;SDS011;19510;54.486;9.046;2024-01-15T08:43:11;5.03;;;1.40;;
16837;SDS011;19510;54.486;9.046;2024-01-15T08:45:37;4.37;;;1.10;;
16837;SDS011;19510;54.486;9.046;2024-01-15T08:48:03;4.67;;;1.53;;
16837;SDS011;19510;54.486;9.046;2024-01-15T08:50:29;6.00;;;1.53;;
16837;SDS011;19510;54.486;9.046;2024-01-15T08:52:57;3.47;;;0.80;;
16837;SDS011;19510;54.486;9.046;2024-01-15T08:55:25;1.60;;;0.77;;
16837;SDS011;19510;54.486;9.046;2024-01-15T08:57:51;4.90;;;1.80;;
16837;SDS011;19510;54.486;9.046;2024-01-15T09:00:17;6.03;;;1.60;;
16837;SDS011;19510;54.486;9.046;2024-01-15T09:02:45;0.97;;;0.70;;
16837;SDS011;19510;54.486;9.046;2024-01-15T09:05:10;3.17;;;0.83;;
16837;SDS011;19510;54.486;9.046;2024-01-15T09:07:36;2.13;;;0.77;;
16837;SDS011;19510;54.486;9.046;2024-01-15T09:10:02;1.30;;;0.80;;
16837;SDS011;19510;54.486;9.046;2024-01-15T09:12:28;2.30;;;0.87;;
16837;SDS011;19510;54.486;9.046;2024-01-15T09:14:56;2.37;;;0.87;;
16837;SDS011;19510;54.486;9.046;2024-01-15T09:17:22;1.50;;;0.70;;
16837;SDS011;19510;54.486;9.046;2024-01-15T09:19:48;2.93;;;0.80;;
16837;SDS011;19510;54.486;9.046;2024-01-15T09:22:14;1.93;;;0.90;;
16837;SDS011;19510;54.486;9.046;2024-01-15T09:24:43;3.67;;;1.13;;
16837;SDS011;19510;54.486;9.046;2024-01-15T09:27:09;3.07;;;0.80;;
16837;SDS011;19510;54.486;9.046;2024-01-15T09:29:38;2.63;;;0.70;;
16837;SDS011;19510;54.486;9.046;2024-01-15T09:32:07;1.87;;;1.20;;
16837;SDS011;19510;54.486;9.046;2024-01-15T09:34:35;1.63;;;0.80;;
16837;SDS011;19510;54.486;9.046;2024-01-15T09:37:01;3.93;;;0.87;;
16837;SDS011;19510;54.486;9.046;2024-01-15T09:39:29;4.10;;;0.80;;
16837;SDS011;19510;54.486;9.046;2024-01-15T09:41:55;4.83;;;0.80;;
16837;SDS011;19510;54.486;9.046;2024-01-15T09:44:22;2.60;;;0.80;;
16837;SDS011;19510;54.486;9.046;2024-01-15T09:46:49;4.10;;;1.00;;
16837;SDS011;19510;54.486;9.046;2024-01-15T09:49:16;5.87;;;0.90;;
16837;SDS011;19510;54.486;9.046;2024-01-15T09:51:42;2.53;;;1.00;;
16837;SDS011;19510;54.486;9.046;2024-01-15T09:54:08;2.10;;;1.07;;
16837;SDS011;19510;54.486;9.046;2024-01-15T09:56:34;2.50;;;1.10;;
16837;SDS011;19510;54.486;9.046;2024-01-15T09:59:00;1.80;;;1.00;;
16837;SDS011;19510;54.486;9.046;2024-01-15T10:01:26;2.93;;;0.83;;
16837;SDS011;19510;54.486;9.046;2024-01-15T10:03:54;1.43;;;0.80;;
16837;SDS011;19510;54.486;9.046;2024-01-15T10:06:21;0.97;;;0.63;;
16837;SDS011;19510;54.486;9.046;2024-01-15T10:08:47;3.33;;;0.77;;
16837;SDS011;19510;54.486;9.046;2024-01-15T10:11:16;1.77;;;0.70;;
16837;SDS011;19510;54.486;9.046;2024-01-15T10:13:43;2.73;;;0.80;;
16837;SDS011;19510;54.486;9.046;2024-01-15T10:16:11;1.70;;;0.70;;
16837;SDS011;19510;54.486;9.046;2024-01-15T10:18:37;3.23;;;0.80;;
16837;SDS011;19510;54.486;9.046;2024-01-15T10:21:04;2.77;;;1.13;;
16837;SDS011;19510;54.486;9.046;2024-01-15T10:23:35;2.40;;;1.30;;
16837;SDS011;19510;54.486;9.046;2024-01-15T10:26:01;3.53;;;1.13;;
16837;SDS011;19510;54.486;9.046;2024-01-15T10:28:27;2.00;;;0.90;;
16837;SDS011;19510;54.486;9.046;2024-01-15T10:30:58;2.40;;;1.00;;
16837;SDS011;19510;54.486;9.046;2024-01-15T10:33:24;2.23;;;0.90;;
16837;SDS011;19510;54.486;9.046;2024-01-15T10:35:53;2.27;;;0.80;;
16837;SDS011;19510;54.486;9.046;2024-01-15T10:38:20;4.27;;;0.90;;
16837;SDS011;19510;54.486;9.046;2024-01-15T10:40:54;1.23;;;0.80;;
16837;SDS011;19510;54.486;9.046;2024-01-15T10:43:21;1.23;;;0.70;;
16837;SDS011;19510;54.486;9.046;2024-01-15T10:45:48;3.30;;;0.80;;
16837;SDS011;19510;54.486;9.046;2024-01-15T10:48:16;2.07;;;0.90;;
16837;SDS011;19510;54.486;9.046;2024-01-15T10:50:45;1.13;;;0.80;;
16837;SDS011;19510;54.486;9.046;2024-01-15T10:53:13;3.97;;;0.80;;
16837;SDS011;19510;54.486;9.046;2024-01-15T10:55:42;3.10;;;1.40;;
16837;SDS011;19510;54.486;9.046;2024-01-15T10:58:08;2.07;;;1.07;;
16837;SDS011;19510;54.486;9.046;2024-01-15T11:00:38;3.63;;;1.10;;
16837;SDS011;19510;54.486;9.046;2024-01-15T11:03:04;1.37;;;0.90;;
16837;SDS011;19510;54.486;9.046;2024-01-15T11:05:43;3.87;;;2.13;;
16837;SDS011;19510;54.486;9.046;2024-01-15T11:08:09;1.20;;;0.90;;
16837;SDS011;19510;54.486;9.046;2024-01-15T11:13:08;4.27;;;1.30;;
16837;SDS011;19510;54.486;9.046;2024-01-15T11:18:28;1.43;;;1.13;;
16837;SDS011;19510;54.486;9.046;2024-01-15T11:23:42;3.07;;;0.80;;
16837;SDS011;19510;54.486;9.046;2024-01-15T11:26:30;3.10;;;1.20;;
16837;SDS011;19510;54.486;9.046;2024-01-15T11:28:56;3.37;;;0.90;;
16837;SDS011;19510;54.486;9.046;2024-01-15T11:31:27;1.17;;;0.60;;
16837;SDS011;19510;54.486;9.046;2024-01-15T11:34:08;4.47;;;0.97;;
16837;SDS011;19510;54.486;9.046;2024-01-15T11:42:01;1.50;;;0.80;;
16837;SDS011;19510;54.486;9.046;2024-01-15T11:44:29;2.63;;;0.70;;
16837;SDS011;19510;54.486;9.046;2024-01-15T11:46:59;2.10;;;0.70;;
16837;SDS011;19510;54.486;9.046;2024-01-15T11:52:12;2.30;;;0.90;;
16837;SDS011;19510;54.486;9.046;2024-01-15T11:54:48;0.80;;;0.77;;
16837;SDS011;19510;54.486;9.046;2024-01-15T11:57:47;2.43;;;0.87;;
16837;SDS011;19510;54.486;9.046;2024-01-15T12:00:16;4.13;;;0.90;;
16837;SDS011;19510;54.486;9.046;2024-01-15T12:02:45;2.30;;;0.80;;
16837;SDS011;19510;54.486;9.046;2024-01-15T12:05:12;2.20;;;0.80;;
16837;SDS011;19510;54.486;9.046;2024-01-15T12:07:39;0.80;;;0.80;;
16837;SDS011;19510;54.486;9.046;2024-01-15T12:10:16;1.97;;;0.63;;
16837;SDS011;19510;54.486;9.046;2024-01-15T12:15:30;4.03;;;0.90;;
16837;SDS011;19510;54.486;9.046;2024-01-15T12:17:57;1.87;;;0.80;;
16837;SDS011;19510;54.486;9.046;2024-01-15T12:20:24;2.17;;;0.87;;
16837;SDS011;19510;54.486;9.046;2024-01-15T12:22:50;1.77;;;0.90;;
16837;SDS011;19510;54.486;9.046;2024-01-15T12:25:16;1.57;;;0.60;;
16837;SDS011;19510;54.486;9.046;2024-01-15T12:27:42;2.07;;;0.70;;
16837;SDS011;19510;54.486;9.046;2024-01-15T12:30:10;1.27;;;0.63;;
16837;SDS011;19510;54.486;9.046;2024-01-15T12:32:36;4.07;;;0.90;;
16837;SDS011;19510;54.486;9.046;2024-01-15T12:35:02;8.57;;;0.90;;
16837;SDS011;19510;54.486;9.046;2024-01-15T12:37:29;1.93;;;0.53;;
16837;SDS011;19510;54.486;9.046;2024-01-15T12:39:55;3.50;;;0.97;;
16837;SDS011;19510;54.486;9.046;2024-01-15T12:42:21;5.77;;;1.20;;
16837;SDS011;19510;54.486;9.046;2024-01-15T12:44:49;3.17;;;0.80;;
16837;SDS011;19510;54.486;9.046;2024-01-15T12:47:15;2.80;;;0.60;;
16837;SDS011;19510;54.486;9.046;2024-01-15T12:49:46;2.57;;;0.90;;
16837;SDS011;19510;54.486;9.046;2024-01-15T12:52:15;7.37;;;1.10;;
16837;SDS011;19510;54.486;9.046;2024-01-15T12:54:43;9.60;;;1.10;;
16837;SDS011;19510;54.486;9.046;2024-01-15T12:57:09;5.00;;;1.00;;
16837;SDS011;19510;54.486;9.046;2024-01-15T12:59:35;4.57;;;1.00;;
16837;SDS011;19510;54.486;9.046;2024-01-15T13:02:00;3.13;;;0.80;;
16837;SDS011;19510;54.486;9.046;2024-01-15T13:04:28;1.77;;;1.10;;
16837;SDS011;19510;54.486;9.046;2024-01-15T13:06:56;2.27;;;0.90;;
16837;SDS011;19510;54.486;9.046;2024-01-15T13:09:22;3.50;;;0.87;;
16837;SDS011;19510;54.486;9.046;2024-01-15T13:11:48;2.40;;;0.90;;
16837;SDS011;19510;54.486;9.046;2024-01-15T13:14:13;12.17;;;3.10;;
16837;SDS011;19510;54.486;9.046;2024-01-15T13:16:42;1.47;;;0.87;;
16837;SDS011;19510;54.486;9.046;2024-01-15T13:19:09;1.73;;;0.90;;
16837;SDS011;19510;54.486;9.046;2024-01-15T13:21:36;1.47;;;0.50;;
16837;SDS011;19510;54.486;9.046;2024-01-15T13:24:02;3.40;;;0.97;;
16837;SDS011;19510;54.486;9.046;2024-01-15T13:26:30;1.83;;;0.83;;
16837;SDS011;19510;54.486;9.046;2024-01-15T13:29:03;3.03;;;0.90;;
16837;SDS011;19510;54.486;9.046;2024-01-15T13:31:29;2.10;;;0.87;;
16837;SDS011;19510;54.486;9.046;2024-01-15T13:33:55;4.70;;;1.20;;
16837;SDS011;19510;54.486;9.046;2024-01-15T13:36:30;7.20;;;1.60;;
16837;SDS011;19510;54.486;9.046;2024-01-15T13:38:56;2.37;;;1.10;;
16837;SDS011;19510;54.486;9.046;2024-01-15T13:41:24;4.77;;;2.30;;
16837;SDS011;19510;54.486;9.046;2024-01-15T13:43:54;1.20;;;1.10;;
16837;SDS011;19510;54.486;9.046;2024-01-15T13:46:24;3.57;;;1.73;;
16837;SDS011;19510;54.486;9.046;2024-01-15T13:48:54;5.10;;;1.77;;
16837;SDS011;19510;54.486;9.046;2024-01-15T13:51:21;1.43;;;1.00;;
16837;SDS011;19510;54.486;9.046;2024-01-15T13:53:48;3.40;;;1.80;;
16837;SDS011;19510;54.486;9.046;2024-01-15T13:56:14;8.17;;;1.90;;
16837;SDS011;19510;54.486;9.046;2024-01-15T13:58:40;2.93;;;1.60;;
16837;SDS011;19510;54.486;9.046;2024-01-15T14:01:08;2.33;;;1.27;;
16837;SDS011;19510;54.486;9.046;2024-01-15T14:06:08;2.73;;;0.83;;
16837;SDS011;19510;54.486;9.046;2024-01-15T14:08:37;5.17;;;1.27;;
16837;SDS011;19510;54.486;9.046;2024-01-15T14:11:03;4.80;;;1.10;;
16837;SDS011;19510;54.486;9.046;2024-01-15T14:13:31;5.87;;;1.53;;
16837;SDS011;19510;54.486;9.046;2024-01-15T14:15:59;4.67;;;0.90;;
16837;SDS011;19510;54.486;9.046;2024-01-15T14:18:26;1.63;;;1.07;;
16837;SDS011;19510;54.486;9.046;2024-01-15T14:20:52;2.27;;;1.00;;
16837;SDS011;19510;54.486;9.046;2024-01-15T14:23:18;3.93;;;1.30;;
16837;SDS011;19510;54.486;9.046;2024-01-15T14:25:44;3.37;;;1.10;;
16837;SDS011;19510;54.486;9.046;2024-01-15T14:28:12;3.77;;;0.90;;
16837;SDS011;19510;54.486;9.046;2024-01-15T14:30:37;2.30;;;0.80;;
16837;SDS011;19510;54.486;9.046;2024-01-15T14:33:03;6.73;;;0.90;;
16837;SDS011;19510;54.486;9.046;2024-01-15T14:35:29;2.80;;;0.93;;
16837;SDS011;19510;54.486;9.046;2024-01-15T14:37:54;1.17;;;0.93;;
16837;SDS011;19510;54.486;9.046;2024-01-15T14:40:20;1.50;;;1.40;;
16837;SDS011;19510;54.486;9.046;2024-01-15T14:42:46;1.57;;;1.10;;
16837;SDS011;19510;54.486;9.046;2024-01-15T14:45:11;1.97;;;0.70;;
16837;SDS011;19510;54.486;9.046;2024-01-15T14:47:37;3.47;;;0.80;;
16837;SDS011;19510;54.486;9.046;2024-01-15T14:50:04;0.93;;;0.70;;
16837;SDS011;19510;54.486;9.046;2024-01-15T14:52:32;3.37;;;1.00;;
16837;SDS011;19510;54.486;9.046;2024-01-15T14:54:58;2.43;;;0.80;;
16837;SDS011;19510;54.486;9.046;2024-01-15T14:57:24;1.47;;;0.73;;
16837;SDS011;19510;54.486;9.046;2024-01-15T14:59:50;0.87;;;0.70;;
16837;SDS011;19510;54.486;9.046;2024-01-15T15:02:16;1.67;;;0.70;;
16837;SDS011;19510;54.486;9.046;2024-01-15T15:04:42;3.10;;;0.73;;
16837;SDS011;19510;54.486;9.046;2024-01-15T15:07:08;2.50;;;0.70;;
16837;SDS011;19510;54.486;9.046;2024-01-15T15:09:35;1.10;;;0.70;;